sensor_id;sensor_type;location;lat;lon;timestamp;P1;durP1;ratioP1;P2;durP2;ratioP2
39188;SDS011;24915;50.858;4.376;2022-08-21T00:00:25;7.45;;;2.72;;
39188;SDS011;24915;50.858;4.376;2022-08-21T00:02:56;10.85;;;3.10;;
39188;SDS011;24915;50.858;4.376;2022-08-21T00:05:27;11.48;;;3.00;;
39188;SDS011;24915;50.858;4.376;2022-08-21T00:07:54;12.52;;;3.70;;
39188;SDS011;24915;50.858;4.376;2022-08-21T00:10:20;13.13;;;2.97;;
39188;SDS011;24915;50.858;4.376;2022-08-21T00:12:46;10.57;;;3.50;;
39188;SDS011;24915;50.858;4.376;2022-08-21T00:15:15;13.60;;;3.42;;
39188;SDS011;24915;50.858;4.376;2022-08-21T00:17:42;7.05;;;2.53;;
39188;SDS011;24915;50.858;4.376;2022-08-21T00:20:09;8.82;;;2.60;;
39188;SDS011;24915;50.858;4.376;2022-08-21T00:22:36;8.80;;;2.97;;
39188;SDS011;24915;50.858;4.376;2022-08-21T00:25:03;10.75;;;2.78;;
39188;SDS011;24915;50.858;4.376;2022-08-21T00:27:30;11.32;;;2.83;;
39188;SDS011;24915;50.858;4.376;2022-08-21T00:29:55;10.27;;;3.00;;
39188;SDS011;24915;50.858;4.376;2022-08-21T00:32:22;10.88;;;2.85;;
39188;SDS011;24915;50.858;4.376;2022-08-21T00:34:49;9.80;;;3.08;;
39188;SDS011;24915;50.858;4.376;2022-08-21T00:37:15;12.20;;;3.05;;
39188;SDS011;24915;50.858;4.376;2022-08-21T00:39:41;8.38;;;3.00;;
39188;SDS011;24915;50.858;4.376;2022-08-21T00:42:07;12.55;;;3.40;;
39188;SDS011;24915;50.858;4.376;2022-08-21T00:44:33;11.98;;;3.10;;
39188;SDS011;24915;50.858;4.376;2022-08-21T00:46:59;8.40;;;3.47;;
39188;SDS011;24915;50.858;4.376;2022-08-21T00:49:25;12.10;;;3.08;;
39188;SDS011;24915;50.858;4.376;2022-08-21T00:51:55;10.25;;;2.72;;
39188;SDS011;24915;50.858;4.376;2022-08-21T00:54:24;13.40;;;3.05;;
39188;SDS011;24915;50.858;4.376;2022-08-21T00:56:53;9.63;;;2.80;;
39188;SDS011;24915;50.858;4.376;2022-08-21T00:59:21;11.20;;;2.78;;
39188;SDS011;24915;50.858;4.376;2022-08-21T01:01:49;8.60;;;3.22;;
39188;SDS011;24915;50.858;4.376;2022-08-21T01:04:15;12.02;;;2.88;;
39188;SDS011;24915;50.858;4.376;2022-08-21T01:06:42;10.65;;;2.90;;
39188;SDS011;24915;50.858;4.376;2022-08-21T01:09:07;12.27;;;3.13;;
39188;SDS011;24915;50.858;4.376;2022-08-21T01:11:33;9.80;;;2.80;;
39188;SDS011;24915;50.858;4.376;2022-08-21T01:13:59;13.57;;;3.28;;
39188;SDS011;24915;50.858;4.376;2022-08-21T01:16:25;8.73;;;2.78;;
39188;SDS011;24915;50.858;4.376;2022-08-21T01:18:51;13.77;;;2.80;;
39188;SDS011;24915;50.858;4.376;2022-08-21T01:21:22;9.70;;;2.53;;
39188;SDS011;24915;50.858;4.376;2022-08-21T01:23:51;9.70;;;2.53;;
39188;SDS011;24915;50.858;4.376;2022-08-21T01:26:19;11.57;;;3.03;;
39188;SDS011;24915;50.858;4.376;2022-08-21T01:29:01;12.45;;;3.00;;
39188;SDS011;24915;50.858;4.376;2022-08-21T01:31:28;10.45;;;2.90;;
39188;SDS011;24915;50.858;4.376;2022-08-21T01:33:55;9.90;;;2.97;;
39188;SDS011;24915;50.858;4.376;2022-08-21T01:36:21;6.72;;;2.45;;
39188;SDS011;24915;50.858;4.376;2022-08-21T01:38:47;9.52;;;3.10;;
39188;SDS011;24915;50.858;4.376;2022-08-21T01:41:14;7.70;;;3.03;;
39188;SDS011;24915;50.858;4.376;2022-08-21T01:43:41;8.85;;;2.90;;
39188;SDS011;24915;50.858;4.376;2022-08-21T01:46:07;12.25;;;3.10;;
39188;SDS011;24915;50.858;4.376;2022-08-21T01:48:34;10.25;;;2.97;;
39188;SDS011;24915;50.858;4.376;2022-08-21T01:51:00;8.02;;;2.60;;
39188;SDS011;24915;50.858;4.376;2022-08-21T01:53:26;10.27;;;3.00;;
39188;SDS011;24915;50.858;4.376;2022-08-21T01:55:52;14.65;;;3.35;;
39188;SDS011;24915;50.858;4.376;2022-08-21T01:58:17;10.02;;;3.10;;
39188;SDS011;24915;50.858;4.376;2022-08-21T02:00:43;10.25;;;2.92;;
39188;SDS011;24915;50.858;4.376;2022-08-21T02:03:09;9.15;;;2.92;;
39188;SDS011;24915;50.858;4.376;2022-08-21T02:05:35;10.63;;;3.40;;
39188;SDS011;24915;50.858;4.376;2022-08-21T02:08:01;13.27;;;3.42;;
39188;SDS011;24915;50.858;4.376;2022-08-21T02:10:28;9.63;;;2.97;;
39188;SDS011;24915;50.858;4.376;2022-08-21T02:12:56;11.02;;;3.00;;
39188;SDS011;24915;50.858;4.376;2022-08-21T02:15:24;10.10;;;2.95;;
39188;SDS011;24915;50.858;4.376;2022-08-21T02:17:52;10.00;;;2.83;;
39188;SDS011;24915;50.858;4.376;2022-08-21T02:20:31;10.23;;;3.33;;
39188;SDS011;24915;50.858;4.376;2022-08-21T02:23:06;7.25;;;2.70;;
39188;SDS011;24915;50.858;4.376;2022-08-21T02:25:33;15.68;;;3.70;;
39188;SDS011;24915;50.858;4.376;2022-08-21T02:27:59;11.38;;;2.75;;
39188;SDS011;24915;50.858;4.376;2022-08-21T02:30:35;6.13;;;2.30;;
39188;SDS011;24915;50.858;4.376;2022-08-21T02:33:03;9.40;;;2.63;;
39188;SDS011;24915;50.858;4.376;2022-08-21T02:35:29;9.07;;;2.60;;
39188;SDS011;24915;50.858;4.376;2022-08-21T02:38:06;4.40;;;2.15;;
39188;SDS011;24915;50.858;4.376;2022-08-21T02:40:36;9.90;;;2.90;;
39188;SDS011;24915;50.858;4.376;2022-08-21T02:43:04;10.55;;;2.45;;
39188;SDS011;24915;50.858;4.376;2022-08-21T02:45:31;8.82;;;2.28;;
39188;SDS011;24915;50.858;4.376;2022-08-21T02:47:58;7.93;;;2.67;;
39188;SDS011;24915;50.858;4.376;2022-08-21T02:50:32;8.02;;;2.58;;
39188;SDS011;24915;50.858;4.376;2022-08-21T02:53:05;8.60;;;2.55;;
39188;SDS011;24915;50.858;4.376;2022-08-21T02:55:32;11.25;;;2.83;;
39188;SDS011;24915;50.858;4.376;2022-08-21T02:58:00;8.68;;;2.80;;
39188;SDS011;24915;50.858;4.376;2022-08-21T03:00:29;9.90;;;2.67;;
39188;SDS011;24915;50.858;4.376;2022-08-21T03:02:56;8.43;;;2.60;;
39188;SDS011;24915;50.858;4.376;2022-08-21T03:05:22;14.57;;;2.55;;
39188;SDS011;24915;50.858;4.376;2022-08-21T03:07:49;8.57;;;2.60;;
39188;SDS011;24915;50.858;4.376;2022-08-21T03:10:15;9.98;;;2.50;;
39188;SDS011;24915;50.858;4.376;2022-08-21T03:12:41;12.90;;;2.20;;
39188;SDS011;24915;50.858;4.376;2022-08-21T03:15:07;9.32;;;2.30;;
39188;SDS011;24915;50.858;4.376;2022-08-21T03:17:34;15.75;;;3.33;;
39188;SDS011;24915;50.858;4.376;2022-08-21T03:20:01;9.18;;;2.45;;
39188;SDS011;24915;50.858;4.376;2022-08-21T03:22:28;6.38;;;2.20;;
39188;SDS011;24915;50.858;4.376;2022-08-21T03:24:53;12.82;;;2.60;;
39188;SDS011;24915;50.858;4.376;2022-08-21T03:27:19;8.27;;;2.30;;
39188;SDS011;24915;50.858;4.376;2022-08-21T03:29:45;9.05;;;2.10;;
39188;SDS011;24915;50.858;4.376;2022-08-21T03:32:11;7.80;;;1.98;;
39188;SDS011;24915;50.858;4.376;2022-08-21T03:34:37;7.00;;;2.20;;
39188;SDS011;24915;50.858;4.376;2022-08-21T03:37:03;10.30;;;2.25;;
39188;SDS011;24915;50.858;4.376;2022-08-21T03:39:30;7.55;;;2.20;;
39188;SDS011;24915;50.858;4.376;2022-08-21T03:41:56;8.50;;;2.35;;
39188;SDS011;24915;50.858;4.376;2022-08-21T03:44:22;12.73;;;2.70;;
39188;SDS011;24915;50.858;4.376;2022-08-21T03:46:47;9.00;;;2.50;;
39188;SDS011;24915;50.858;4.376;2022-08-21T03:49:14;9.50;;;2.38;;
39188;SDS011;24915;50.858;4.376;2022-08-21T03:51:40;9.27;;;2.30;;
39188;SDS011;24915;50.858;4.376;2022-08-21T03:54:05;8.80;;;2.50;;
39188;SDS011;24915;50.858;4.376;2022-08-21T03:56:31;13.65;;;2.33;;
39188;SDS011;24915;50.858;4.376;2022-08-21T03:58:57;11.05;;;2.53;;
39188;SDS011;24915;50.858;4.376;2022-08-21T04:01:23;15.07;;;2.67;;
39188;SDS011;24915;50.858;4.376;2022-08-21T04:03:49;10.20;;;2.70;;
39188;SDS011;24915;50.858;4.376;2022-08-21T04:06:14;14.65;;;2.97;;
39188;SDS011;24915;50.858;4.376;2022-08-21T04:08:40;10.23;;;2.25;;
39188;SDS011;24915;50.858;4.376;2022-08-21T04:11:08;6.10;;;1.85;;
39188;SDS011;24915;50.858;4.376;2022-08-21T04:13:35;9.10;;;2.40;;
39188;SDS011;24915;50.858;4.376;2022-08-21T04:16:01;8.95;;;2.38;;
39188;SDS011;24915;50.858;4.376;2022-08-21T04:18:27;5.78;;;1.92;;
39188;SDS011;24915;50.858;4.376;2022-08-21T04:20:53;10.60;;;2.33;;
39188;SDS011;24915;50.858;4.376;2022-08-21T04:23:20;9.52;;;2.67;;
39188;SDS011;24915;50.858;4.376;2022-08-21T04:25:46;10.43;;;2.70;;
39188;SDS011;24915;50.858;4.376;2022-08-21T04:28:12;10.93;;;2.45;;
39188;SDS011;24915;50.858;4.376;2022-08-21T04:30:38;10.27;;;2.35;;
39188;SDS011;24915;50.858;4.376;2022-08-21T04:33:04;8.68;;;2.67;;
39188;SDS011;24915;50.858;4.376;2022-08-21T04:35:30;10.43;;;2.05;;
39188;SDS011;24915;50.858;4.376;2022-08-21T04:37:56;9.10;;;2.20;;
39188;SDS011;24915;50.858;4.376;2022-08-21T04:40:23;7.90;;;2.97;;
39188;SDS011;24915;50.858;4.376;2022-08-21T04:43:00;11.23;;;2.88;;
39188;SDS011;24915;50.858;4.376;2022-08-21T04:45:33;9.23;;;2.60;;
39188;SDS011;24915;50.858;4.376;2022-08-21T04:48:01;7.07;;;2.22;;
39188;SDS011;24915;50.858;4.376;2022-08-21T04:50:36;6.40;;;2.35;;
39188;SDS011;24915;50.858;4.376;2022-08-21T04:53:07;8.60;;;2.70;;
39188;SDS011;24915;50.858;4.376;2022-08-21T04:55:43;9.23;;;2.53;;
39188;SDS011;24915;50.858;4.376;2022-08-21T04:58:11;11.02;;;2.80;;
39188;SDS011;24915;50.858;4.376;2022-08-21T05:00:38;12.48;;;2.75;;
39188;SDS011;24915;50.858;4.376;2022-08-21T05:03:05;12.45;;;3.20;;
39188;SDS011;24915;50.858;4.376;2022-08-21T05:05:32;10.10;;;2.60;;
39188;SDS011;24915;50.858;4.376;2022-08-21T05:07:59;10.02;;;2.65;;
39188;SDS011;24915;50.858;4.376;2022-08-21T05:10:27;15.52;;;2.65;;
39188;SDS011;24915;50.858;4.376;2022-08-21T05:12:53;9.48;;;2.50;;
39188;SDS011;24915;50.858;4.376;2022-08-21T05:15:19;9.50;;;2.28;;
39188;SDS011;24915;50.858;4.376;2022-08-21T05:17:45;8.15;;;2.75;;
39188;SDS011;24915;50.858;4.376;2022-08-21T05:20:12;6.53;;;2.70;;
39188;SDS011;24915;50.858;4.376;2022-08-21T05:22:38;10.68;;;3.03;;
39188;SDS011;24915;50.858;4.376;2022-08-21T05:25:04;11.88;;;2.50;;
39188;SDS011;24915;50.858;4.376;2022-08-21T05:27:31;8.75;;;2.53;;
39188;SDS011;24915;50.858;4.376;2022-08-21T05:29:57;11.55;;;2.72;;
39188;SDS011;24915;50.858;4.376;2022-08-21T05:32:23;9.82;;;2.65;;
39188;SDS011;24915;50.858;4.376;2022-08-21T05:34:49;10.95;;;2.78;;
39188;SDS011;24915;50.858;4.376;2022-08-21T05:37:15;10.75;;;2.40;;
39188;SDS011;24915;50.858;4.376;2022-08-21T05:39:41;11.73;;;2.90;;
39188;SDS011;24915;50.858;4.376;2022-08-21T05:42:07;9.98;;;3.05;;
39188;SDS011;24915;50.858;4.376;2022-08-21T05:44:32;8.43;;;2.60;;
39188;SDS011;24915;50.858;4.376;2022-08-21T05:47:05;11.18;;;2.88;;
39188;SDS011;24915;50.858;4.376;2022-08-21T05:49:31;9.23;;;2.50;;
39188;SDS011;24915;50.858;4.376;2022-08-21T05:51:57;12.25;;;3.38;;
39188;SDS011;24915;50.858;4.376;2022-08-21T05:54:23;9.85;;;3.00;;
39188;SDS011;24915;50.858;4.376;2022-08-21T05:56:49;8.75;;;2.50;;
39188;SDS011;24915;50.858;4.376;2022-08-21T05:59:14;12.48;;;3.13;;
39188;SDS011;24915;50.858;4.376;2022-08-21T06:01:40;12.38;;;3.05;;
39188;SDS011;24915;50.858;4.376;2022-08-21T06:04:06;11.30;;;2.88;;
39188;SDS011;24915;50.858;4.376;2022-08-21T06:06:32;9.93;;;2.75;;
39188;SDS011;24915;50.858;4.376;2022-08-21T06:08:59;10.90;;;2.63;;
39188;SDS011;24915;50.858;4.376;2022-08-21T06:11:24;8.48;;;2.72;;
39188;SDS011;24915;50.858;4.376;2022-08-21T06:13:50;7.75;;;2.90;;
39188;SDS011;24915;50.858;4.376;2022-08-21T06:16:16;9.65;;;3.05;;
39188;SDS011;24915;50.858;4.376;2022-08-21T06:18:42;11.63;;;2.55;;
39188;SDS011;24915;50.858;4.376;2022-08-21T06:21:09;9.30;;;2.70;;
39188;SDS011;24915;50.858;4.376;2022-08-21T06:23:36;9.30;;;2.90;;
39188;SDS011;24915;50.858;4.376;2022-08-21T06:26:02;7.38;;;2.38;;
39188;SDS011;24915;50.858;4.376;2022-08-21T06:28:29;16.25;;;3.88;;
39188;SDS011;24915;50.858;4.376;2022-08-21T06:30:56;5.72;;;2.20;;
39188;SDS011;24915;50.858;4.376;2022-08-21T06:33:22;8.13;;;2.55;;
39188;SDS011;24915;50.858;4.376;2022-08-21T06:35:48;11.15;;;2.70;;
39188;SDS011;24915;50.858;4.376;2022-08-21T06:38:14;6.47;;;2.30;;
39188;SDS011;24915;50.858;4.376;2022-08-21T06:40:40;11.15;;;2.80;;
39188;SDS011;24915;50.858;4.376;2022-08-21T06:43:10;12.40;;;2.60;;
39188;SDS011;24915;50.858;4.376;2022-08-21T06:45:39;10.65;;;2.47;;
39188;SDS011;24915;50.858;4.376;2022-08-21T06:48:05;10.95;;;2.78;;
39188;SDS011;24915;50.858;4.376;2022-08-21T06:50:32;8.73;;;2.60;;
39188;SDS011;24915;50.858;4.376;2022-08-21T06:53:06;8.40;;;2.47;;
39188;SDS011;24915;50.858;4.376;2022-08-21T06:55:35;11.45;;;2.85;;
39188;SDS011;24915;50.858;4.376;2022-08-21T06:58:03;9.90;;;3.10;;
39188;SDS011;24915;50.858;4.376;2022-08-21T07:00:29;7.15;;;2.45;;
39188;SDS011;24915;50.858;4.376;2022-08-21T07:02:55;8.05;;;2.50;;
39188;SDS011;24915;50.858;4.376;2022-08-21T07:05:22;4.97;;;2.10;;
39188;SDS011;24915;50.858;4.376;2022-08-21T07:07:50;9.52;;;2.70;;
39188;SDS011;24915;50.858;4.376;2022-08-21T07:10:16;6.97;;;2.42;;
39188;SDS011;24915;50.858;4.376;2022-08-21T07:12:42;12.07;;;2.35;;
39188;SDS011;24915;50.858;4.376;2022-08-21T07:15:08;9.23;;;2.50;;
39188;SDS011;24915;50.858;4.376;2022-08-21T07:17:34;7.43;;;2.20;;
39188;SDS011;24915;50.858;4.376;2022-08-21T07:19:59;10.30;;;2.60;;
39188;SDS011;24915;50.858;4.376;2022-08-21T07:22:25;7.75;;;2.42;;
39188;SDS011;24915;50.858;4.376;2022-08-21T07:24:52;7.03;;;2.35;;
39188;SDS011;24915;50.858;4.376;2022-08-21T07:27:18;9.80;;;2.50;;
39188;SDS011;24915;50.858;4.376;2022-08-21T07:29:44;12.15;;;2.40;;
39188;SDS011;24915;50.858;4.376;2022-08-21T07:32:10;11.23;;;2.45;;
39188;SDS011;24915;50.858;4.376;2022-08-21T07:34:35;12.73;;;2.42;;
39188;SDS011;24915;50.858;4.376;2022-08-21T07:37:01;10.50;;;2.92;;
39188;SDS011;24915;50.858;4.376;2022-08-21T07:39:27;9.35;;;3.30;;
39188;SDS011;24915;50.858;4.376;2022-08-21T07:41:52;12.07;;;3.13;;
39188;SDS011;24915;50.858;4.376;2022-08-21T07:44:18;8.40;;;3.38;;
39188;SDS011;24915;50.858;4.376;2022-08-21T07:46:44;9.88;;;2.80;;
39188;SDS011;24915;50.858;4.376;2022-08-21T07:49:09;8.45;;;2.60;;
39188;SDS011;24915;50.858;4.376;2022-08-21T07:51:35;7.20;;;2.25;;
39188;SDS011;24915;50.858;4.376;2022-08-21T07:54:01;12.20;;;2.58;;
39188;SDS011;24915;50.858;4.376;2022-08-21T07:56:27;9.32;;;2.30;;
39188;SDS011;24915;50.858;4.376;2022-08-21T07:58:54;8.95;;;2.70;;
39188;SDS011;24915;50.858;4.376;2022-08-21T08:01:22;9.77;;;2.75;;
39188;SDS011;24915;50.858;4.376;2022-08-21T08:03:48;8.27;;;2.30;;
39188;SDS011;24915;50.858;4.376;2022-08-21T08:06:14;10.20;;;2.50;;
39188;SDS011;24915;50.858;4.376;2022-08-21T08:08:41;7.20;;;2.20;;
39188;SDS011;24915;50.858;4.376;2022-08-21T08:11:08;6.55;;;2.20;;
39188;SDS011;24915;50.858;4.376;2022-08-21T08:13:43;9.00;;;2.13;;
39188;SDS011;24915;50.858;4.376;2022-08-21T08:16:10;10.48;;;2.63;;
39188;SDS011;24915;50.858;4.376;2022-08-21T08:18:37;8.55;;;2.35;;
39188;SDS011;24915;50.858;4.376;2022-08-21T08:21:03;9.35;;;2.03;;
39188;SDS011;24915;50.858;4.376;2022-08-21T08:23:30;9.52;;;2.05;;
39188;SDS011;24915;50.858;4.376;2022-08-21T08:25:57;12.38;;;2.70;;
39188;SDS011;24915;50.858;4.376;2022-08-21T08:28:23;15.35;;;2.50;;
39188;SDS011;24915;50.858;4.376;2022-08-21T08:30:49;9.00;;;2.53;;
39188;SDS011;24915;50.858;4.376;2022-08-21T08:33:15;9.50;;;2.30;;
39188;SDS011;24915;50.858;4.376;2022-08-21T08:35:45;8.35;;;2.22;;
39188;SDS011;24915;50.858;4.376;2022-08-21T08:38:14;5.93;;;1.67;;
39188;SDS011;24915;50.858;4.376;2022-08-21T08:40:55;9.25;;;2.40;;
39188;SDS011;24915;50.858;4.376;2022-08-21T08:43:40;12.23;;;3.17;;
39188;SDS011;24915;50.858;4.376;2022-08-21T08:46:14;9.60;;;2.10;;
39188;SDS011;24915;50.858;4.376;2022-08-21T08:51:22;8.15;;;2.17;;
39188;SDS011;24915;50.858;4.376;2022-08-21T08:53:54;9.23;;;2.40;;
39188;SDS011;24915;50.858;4.376;2022-08-21T08:56:26;6.70;;;2.35;;
39188;SDS011;24915;50.858;4.376;2022-08-21T08:58:55;13.43;;;2.63;;
39188;SDS011;24915;50.858;4.376;2022-08-21T09:01:26;7.97;;;2.25;;
39188;SDS011;24915;50.858;4.376;2022-08-21T09:03:52;11.63;;;2.22;;
39188;SDS011;24915;50.858;4.376;2022-08-21T09:12:04;9.45;;;2.55;;
39188;SDS011;24915;50.858;4.376;2022-08-21T09:27:19;11.80;;;2.50;;
39188;SDS011;24915;50.858;4.376;2022-08-21T09:29:49;10.13;;;2.22;;
39188;SDS011;24915;50.858;4.376;2022-08-21T09:32:18;7.35;;;2.30;;
39188;SDS011;24915;50.858;4.376;2022-08-21T09:40:18;8.65;;;2.13;;
39188;SDS011;24915;50.858;4.376;2022-08-21T09:42:58;9.98;;;2.17;;
39188;SDS011;24915;50.858;4.376;2022-08-21T09:45:26;9.52;;;2.28;;
39188;SDS011;24915;50.858;4.376;2022-08-21T09:47:51;10.10;;;2.45;;
39188;SDS011;24915;50.858;4.376;2022-08-21T09:50:23;11.25;;;2.35;;
39188;SDS011;24915;50.858;4.376;2022-08-21T09:52:51;11.95;;;2.50;;
39188;SDS011;24915;50.858;4.376;2022-08-21T09:55:21;8.38;;;2.40;;
39188;SDS011;24915;50.858;4.376;2022-08-21T09:58:14;10.65;;;2.38;;
39188;SDS011;24915;50.858;4.376;2022-08-21T10:00:41;11.80;;;2.38;;
39188;SDS011;24915;50.858;4.376;2022-08-21T10:03:08;8.68;;;2.10;;
39188;SDS011;24915;50.858;4.376;2022-08-21T10:05:36;12.68;;;3.08;;
39188;SDS011;24915;50.858;4.376;2022-08-21T10:08:03;8.95;;;2.00;;
39188;SDS011;24915;50.858;4.376;2022-08-21T10:10:31;11.70;;;2.50;;
39188;SDS011;24915;50.858;4.376;2022-08-21T10:22:13;10.60;;;2.95;;
39188;SDS011;24915;50.858;4.376;2022-08-21T10:37:56;9.45;;;2.38;;
39188;SDS011;24915;50.858;4.376;2022-08-21T10:46:37;10.82;;;2.83;;
39188;SDS011;24915;50.858;4.376;2022-08-21T10:52:25;14.48;;;3.35;;
39188;SDS011;24915;50.858;4.376;2022-08-21T10:55:18;15.75;;;3.05;;
39188;SDS011;24915;50.858;4.376;2022-08-21T10:58:04;9.52;;;2.15;;
39188;SDS011;24915;50.858;4.376;2022-08-21T11:00:45;9.80;;;3.30;;
39188;SDS011;24915;50.858;4.376;2022-08-21T11:03:35;7.90;;;2.25;;
39188;SDS011;24915;50.858;4.376;2022-08-21T11:06:16;9.95;;;2.42;;
39188;SDS011;24915;50.858;4.376;2022-08-21T11:08:47;7.95;;;2.58;;
39188;SDS011;24915;50.858;4.376;2022-08-21T11:11:22;17.05;;;3.47;;
39188;SDS011;24915;50.858;4.376;2022-08-21T11:24:40;10.15;;;2.45;;
39188;SDS011;24915;50.858;4.376;2022-08-21T11:27:19;8.02;;;2.53;;
39188;SDS011;24915;50.858;4.376;2022-08-21T11:29:53;10.00;;;2.92;;
39188;SDS011;24915;50.858;4.376;2022-08-21T11:52:01;8.63;;;2.55;;
39188;SDS011;24915;50.858;4.376;2022-08-21T11:54:34;7.68;;;3.03;;
39188;SDS011;24915;50.858;4.376;2022-08-21T11:57:26;11.70;;;3.20;;
39188;SDS011;24915;50.858;4.376;2022-08-21T12:02:45;8.88;;;2.55;;
39188;SDS011;24915;50.858;4.376;2022-08-21T12:05:34;9.80;;;2.38;;
39188;SDS011;24915;50.858;4.376;2022-08-21T12:08:13;12.15;;;2.75;;
39188;SDS011;24915;50.858;4.376;2022-08-21T12:13:39;10.45;;;2.78;;
39188;SDS011;24915;50.858;4.376;2022-08-21T12:16:27;8.35;;;2.72;;
39188;SDS011;24915;50.858;4.376;2022-08-21T12:19:04;11.45;;;2.33;;
39188;SDS011;24915;50.858;4.376;2022-08-21T12:21:47;5.72;;;2.15;;
39188;SDS011;24915;50.858;4.376;2022-08-21T12:24:29;14.32;;;2.65;;
39188;SDS011;24915;50.858;4.376;2022-08-21T12:27:30;9.20;;;3.10;;
39188;SDS011;24915;50.858;4.376;2022-08-21T12:33:26;22.33;;;3.83;;
39188;SDS011;24915;50.858;4.376;2022-08-21T12:35:50;8.73;;;2.28;;
39188;SDS011;24915;50.858;4.376;2022-08-21T12:38:20;3.55;;;1.88;;
39188;SDS011;24915;50.858;4.376;2022-08-21T12:41:02;10.15;;;2.70;;
39188;SDS011;24915;50.858;4.376;2022-08-21T12:43:36;9.27;;;2.40;;
39188;SDS011;24915;50.858;4.376;2022-08-21T12:46:05;11.63;;;3.67;;
39188;SDS011;24915;50.858;4.376;2022-08-21T12:48:35;9.55;;;3.53;;
39188;SDS011;24915;50.858;4.376;2022-08-21T12:51:18;9.30;;;3.05;;
39188;SDS011;24915;50.858;4.376;2022-08-21T12:53:52;7.47;;;2.53;;
39188;SDS011;24915;50.858;4.376;2022-08-21T12:56:21;6.18;;;2.00;;
39188;SDS011;24915;50.858;4.376;2022-08-21T12:59:00;9.95;;;2.67;;
39188;SDS011;24915;50.858;4.376;2022-08-21T13:01:33;10.77;;;3.20;;
39188;SDS011;24915;50.858;4.376;2022-08-21T13:04:02;11.20;;;3.15;;
39188;SDS011;24915;50.858;4.376;2022-08-21T13:06:36;9.73;;;2.60;;
39188;SDS011;24915;50.858;4.376;2022-08-21T13:09:05;6.03;;;2.95;;
39188;SDS011;24915;50.858;4.376;2022-08-21T13:11:33;9.00;;;2.72;;
39188;SDS011;24915;50.858;4.376;2022-08-21T13:14:00;7.30;;;2.47;;
39188;SDS011;24915;50.858;4.376;2022-08-21T13:16:28;9.40;;;2.45;;
39188;SDS011;24915;50.858;4.376;2022-08-21T13:18:59;8.25;;;2.53;;
39188;SDS011;24915;50.858;4.376;2022-08-21T13:21:34;9.45;;;2.90;;
39188;SDS011;24915;50.858;4.376;2022-08-21T13:27:01;10.98;;;3.20;;
39188;SDS011;24915;50.858;4.376;2022-08-21T13:29:28;11.63;;;4.32;;
39188;SDS011;24915;50.858;4.376;2022-08-21T13:32:00;8.38;;;3.03;;
39188;SDS011;24915;50.858;4.376;2022-08-21T13:34:30;8.75;;;2.33;;
39188;SDS011;24915;50.858;4.376;2022-08-21T13:37:02;8.30;;;2.55;;
39188;SDS011;24915;50.858;4.376;2022-08-21T13:39:31;8.05;;;2.65;;
39188;SDS011;24915;50.858;4.376;2022-08-21T13:41:58;7.25;;;2.55;;
39188;SDS011;24915;50.858;4.376;2022-08-21T13:44:36;9.27;;;3.15;;
39188;SDS011;24915;50.858;4.376;2022-08-21T13:47:06;9.27;;;3.25;;
39188;SDS011;24915;50.858;4.376;2022-08-21T13:49:35;9.55;;;2.83;;
39188;SDS011;24915;50.858;4.376;2022-08-21T13:52:03;10.65;;;2.80;;
39188;SDS011;24915;50.858;4.376;2022-08-21T13:54:42;10.48;;;3.30;;
39188;SDS011;24915;50.858;4.376;2022-08-21T13:57:23;7.30;;;3.20;;
39188;SDS011;24915;50.858;4.376;2022-08-21T14:00:18;9.15;;;3.05;;
39188;SDS011;24915;50.858;4.376;2022-08-21T14:02:50;6.50;;;2.72;;
39188;SDS011;24915;50.858;4.376;2022-08-21T14:05:27;9.50;;;2.65;;
39188;SDS011;24915;50.858;4.376;2022-08-21T14:08:07;8.20;;;2.88;;
39188;SDS011;24915;50.858;4.376;2022-08-21T14:10:35;10.48;;;4.22;;
39188;SDS011;24915;50.858;4.376;2022-08-21T14:13:06;14.93;;;3.03;;
39188;SDS011;24915;50.858;4.376;2022-08-21T14:15:33;15.40;;;3.03;;
39188;SDS011;24915;50.858;4.376;2022-08-21T14:18:17;6.32;;;2.38;;
39188;SDS011;24915;50.858;4.376;2022-08-21T14:20:43;18.90;;;4.35;;
39188;SDS011;24915;50.858;4.376;2022-08-21T14:23:09;7.57;;;2.47;;
39188;SDS011;24915;50.858;4.376;2022-08-21T14:25:38;11.48;;;3.75;;
39188;SDS011;24915;50.858;4.376;2022-08-21T14:31:19;9.63;;;3.83;;
39188;SDS011;24915;50.858;4.376;2022-08-21T14:33:46;11.23;;;4.40;;
39188;SDS011;24915;50.858;4.376;2022-08-21T14:36:13;8.60;;;3.58;;
39188;SDS011;24915;50.858;4.376;2022-08-21T14:38:39;9.10;;;3.13;;
39188;SDS011;24915;50.858;4.376;2022-08-21T14:41:14;15.93;;;3.45;;
39188;SDS011;24915;50.858;4.376;2022-08-21T14:43:46;9.60;;;2.97;;
39188;SDS011;24915;50.858;4.376;2022-08-21T14:46:13;10.65;;;2.72;;
39188;SDS011;24915;50.858;4.376;2022-08-21T14:48:45;11.57;;;2.90;;
39188;SDS011;24915;50.858;4.376;2022-08-21T14:51:12;8.07;;;2.58;;
39188;SDS011;24915;50.858;4.376;2022-08-21T14:53:38;12.65;;;2.70;;
39188;SDS011;24915;50.858;4.376;2022-08-21T14:56:04;9.00;;;3.63;;
39188;SDS011;24915;50.858;4.376;2022-08-21T14:58:35;11.88;;;3.80;;
39188;SDS011;24915;50.858;4.376;2022-08-21T15:01:03;12.07;;;3.67;;
39188;SDS011;24915;50.858;4.376;2022-08-21T15:03:31;15.32;;;5.00;;
39188;SDS011;24915;50.858;4.376;2022-08-21T15:05:56;8.68;;;2.63;;
39188;SDS011;24915;50.858;4.376;2022-08-21T15:08:23;8.15;;;2.92;;
39188;SDS011;24915;50.858;4.376;2022-08-21T15:10:49;10.13;;;3.15;;
39188;SDS011;24915;50.858;4.376;2022-08-21T15:13:16;10.23;;;2.60;;
39188;SDS011;24915;50.858;4.376;2022-08-21T15:15:43;12.40;;;3.20;;
39188;SDS011;24915;50.858;4.376;2022-08-21T15:18:10;11.18;;;3.63;;
39188;SDS011;24915;50.858;4.376;2022-08-21T15:20:36;11.05;;;2.47;;
39188;SDS011;24915;50.858;4.376;2022-08-21T15:23:03;10.07;;;2.97;;
39188;SDS011;24915;50.858;4.376;2022-08-21T15:25:30;15.15;;;2.42;;
39188;SDS011;24915;50.858;4.376;2022-08-21T15:27:56;15.60;;;5.57;;
39188;SDS011;24915;50.858;4.376;2022-08-21T15:30:22;14.00;;;3.60;;
39188;SDS011;24915;50.858;4.376;2022-08-21T15:32:48;10.38;;;2.72;;
39188;SDS011;24915;50.858;4.376;2022-08-21T15:35:13;8.80;;;2.70;;
39188;SDS011;24915;50.858;4.376;2022-08-21T15:37:39;9.70;;;2.60;;
39188;SDS011;24915;50.858;4.376;2022-08-21T15:40:06;13.52;;;2.58;;
39188;SDS011;24915;50.858;4.376;2022-08-21T15:42:33;8.30;;;2.88;;
39188;SDS011;24915;50.858;4.376;2022-08-21T15:44:59;8.10;;;2.38;;
39188;SDS011;24915;50.858;4.376;2022-08-21T15:47:29;12.70;;;2.67;;
39188;SDS011;24915;50.858;4.376;2022-08-21T15:49:59;11.80;;;4.35;;
39188;SDS011;24915;50.858;4.376;2022-08-21T15:52:24;10.27;;;3.63;;
39188;SDS011;24915;50.858;4.376;2022-08-21T15:54:51;8.15;;;2.90;;
39188;SDS011;24915;50.858;4.376;2022-08-21T15:57:18;10.65;;;2.53;;
39188;SDS011;24915;50.858;4.376;2022-08-21T15:59:50;18.90;;;4.45;;
39188;SDS011;24915;50.858;4.376;2022-08-21T16:02:23;9.18;;;3.60;;
39188;SDS011;24915;50.858;4.376;2022-08-21T16:04:53;9.07;;;3.47;;
39188;SDS011;24915;50.858;4.376;2022-08-21T16:07:19;27.13;;;14.82;;
39188;SDS011;24915;50.858;4.376;2022-08-21T16:09:45;20.85;;;11.75;;
39188;SDS011;24915;50.858;4.376;2022-08-21T16:12:13;14.98;;;6.43;;
39188;SDS011;24915;50.858;4.376;2022-08-21T16:14:44;11.63;;;4.45;;
39188;SDS011;24915;50.858;4.376;2022-08-21T16:17:10;10.85;;;3.80;;
39188;SDS011;24915;50.858;4.376;2022-08-21T16:19:36;8.88;;;3.30;;
39188;SDS011;24915;50.858;4.376;2022-08-21T16:22:02;11.05;;;3.15;;
39188;SDS011;24915;50.858;4.376;2022-08-21T16:24:28;18.30;;;6.88;;
39188;SDS011;24915;50.858;4.376;2022-08-21T16:26:54;18.05;;;7.38;;
39188;SDS011;24915;50.858;4.376;2022-08-21T16:29:20;17.98;;;6.68;;
39188;SDS011;24915;50.858;4.376;2022-08-21T16:31:46;8.48;;;4.25;;
39188;SDS011;24915;50.858;4.376;2022-08-21T16:34:15;16.08;;;4.90;;